Patuxent River, MD

2:46 PM EDT on May 30, 2015 (GMT -0400)
Patuxent River Naval Air Station | | Change Station
CLOSE
Current Station
Airport
Location: Patuxent River,
Elevation: 39 ft
Nearby Weather Stations

Elev 39 ft 38.29 °N, 76.41 °W | Updated 54 minutes ago

Partly Cloudy
Partly Cloudy
80 °F
Feels Like 83 °F
N
15
Wind Variable Wind from SE

Today
High -- | Low -- °F
--% Chance of Precip.
Yesterday
High -- | Low -- °F
Precip. -- in
5:44 AM 8:21 PM
Waxing Gibbous, 91% visible
Pressure 30.17 in
Visibility 10.0 miles
Clouds Few 3600 ft
Scattered Clouds 4700 ft
Heat Index 83 °F
Dew Point 69 °F
Humidity 69%
Rainfall 0.00 in
Snow Depth Not available.
UV 9 out of 12
Pollen 8.90 out of 12
Air Quality Not available.
Flu Activity Sporadic
METAR KNHK 301752Z 14013KT 10SM FEW036 SCT047 27/21 A3016 RMK AO2 SLP214 T02670206 10283 20233 58013

More Conditions Fewer Conditions

Pressure 30.17 in
Visibility 10.0 miles
Clouds Few 3600 ft
Scattered Clouds 4700 ft
Heat Index 83 °F
Dew Point 69 °F
Humidity 69%
Rainfall 0.00 in
Snow Depth Not available.
UV 9 out of 12
Pollen 8.90 out of 12
Air Quality Not available.
Flu Activity Sporadic
METAR KNHK 301752Z 14013KT 10SM FEW036 SCT047 27/21 A3016 RMK AO2 SLP214 T02670206 10283 20233 58013

More Conditions Fewer Conditions

10-Day Weather Forecast

Almanac

Astronomy

May. 30, 2015 Rise Set
Actual Time
Civil Twilight
Nautical Twilight
Astronomical Twilight
Moon
Length of Visible Light
Length of Day
Tomorrow will be .
, % of the Moon is Illuminated

Today's Extremes

State Highs State Lows

Community

WunderPhotos

Upload Photos

1,825,610 photos uploaded!

WunderBlogs® & News

Nearby

Air Quality

  Air Quality AQ Index Pollutant
Not available.

Snow Depth

Station Depth Elevation

Earthquake Activity

City Distance Mag. Time & Date
Minimum magnitude displayed is 2.5.

Coastal Water Temperatures

Place Temperature

Stations

Nearby Weather Stations

Station Location Temp. Windchill Dew Point Humidity Wind Precip. Elev Updated Type